sensor_id;sensor_type;location;lat;lon;timestamp;P1;P2;P0
55276;PMS5003;41136;51.478;-2.610;2024-01-30T00:00:22;2;2;
55276;PMS5003;41136;51.478;-2.610;2024-01-30T00:02:47;2;2;
55276;PMS5003;41136;51.478;-2.610;2024-01-30T00:05:13;2;1;
55276;PMS5003;41136;51.478;-2.610;2024-01-30T00:07:38;1;1;
55276;PMS5003;41136;51.478;-2.610;2024-01-30T00:10:03;2;2;
55276;PMS5003;41136;51.478;-2.610;2024-01-30T00:12:29;1;1;
55276;PMS5003;41136;51.478;-2.610;2024-01-30T00:14:54;3;2;
55276;PMS5003;41136;51.478;-2.610;2024-01-30T00:17:19;2;2;
55276;PMS5003;41136;51.478;-2.610;2024-01-30T00:19:44;1;1;
55276;PMS5003;41136;51.478;-2.610;2024-01-30T00:22:10;1;1;
55276;PMS5003;41136;51.478;-2.610;2024-01-30T00:30:36;1;1;
55276;PMS5003;41136;51.478;-2.610;2024-01-30T00:33:02;1;1;
55276;PMS5003;41136;51.478;-2.610;2024-01-30T00:35:27;2;2;
55276;PMS5003;41136;51.478;-2.610;2024-01-30T00:37:52;1;1;
55276;PMS5003;41136;51.478;-2.610;2024-01-30T00:40:17;1;1;
55276;PMS5003;41136;51.478;-2.610;2024-01-30T00:42:43;4;3;
55276;PMS5003;41136;51.478;-2.610;2024-01-30T00:45:11;2;2;
55276;PMS5003;41136;51.478;-2.610;2024-01-30T00:47:33;1;1;
55276;PMS5003;41136;51.478;-2.610;2024-01-30T00:49:59;1;1;
55276;PMS5003;41136;51.478;-2.610;2024-01-30T00:52:24;0;0;
55276;PMS5003;41136;51.478;-2.610;2024-01-30T00:54:49;1;1;
55276;PMS5003;41136;51.478;-2.610;2024-01-30T00:57:15;0;0;
55276;PMS5003;41136;51.478;-2.610;2024-01-30T00:59:40;0;0;
55276;PMS5003;41136;51.478;-2.610;2024-01-30T01:02:05;1;1;
55276;PMS5003;41136;51.478;-2.610;2024-01-30T01:04:31;1;1;
55276;PMS5003;41136;51.478;-2.610;2024-01-30T01:06:56;2;2;
55276;PMS5003;41136;51.478;-2.610;2024-01-30T01:09:21;2;1;
55276;PMS5003;41136;51.478;-2.610;2024-01-30T01:11:47;1;1;
55276;PMS5003;41136;51.478;-2.610;2024-01-30T01:14:12;2;2;
55276;PMS5003;41136;51.478;-2.610;2024-01-30T01:16:37;4;4;
55276;PMS5003;41136;51.478;-2.610;2024-01-30T01:19:03;7;6;
55276;PMS5003;41136;51.478;-2.610;2024-01-30T01:21:28;6;5;
55276;PMS5003;41136;51.478;-2.610;2024-01-30T01:23:53;8;7;
55276;PMS5003;41136;51.478;-2.610;2024-01-30T01:26:18;10;8;
55276;PMS5003;41136;51.478;-2.610;2024-01-30T01:28:44;10;9;
55276;PMS5003;41136;51.478;-2.610;2024-01-30T01:31:09;11;9;
55276;PMS5003;41136;51.478;-2.610;2024-01-30T01:33:34;10;9;
55276;PMS5003;41136;51.478;-2.610;2024-01-30T01:36:00;14;8;
55276;PMS5003;41136;51.478;-2.610;2024-01-30T01:38:25;10;9;
55276;PMS5003;41136;51.478;-2.610;2024-01-30T01:40:50;10;10;
55276;PMS5003;41136;51.478;-2.610;2024-01-30T01:43:15;7;7;
55276;PMS5003;41136;51.478;-2.610;2024-01-30T01:45:41;7;6;
55276;PMS5003;41136;51.478;-2.610;2024-01-30T01:48:06;8;7;
55276;PMS5003;41136;51.478;-2.610;2024-01-30T01:50:32;10;10;
55276;PMS5003;41136;51.478;-2.610;2024-01-30T01:52:57;6;6;
55276;PMS5003;41136;51.478;-2.610;2024-01-30T01:55:23;12;11;
55276;PMS5003;41136;51.478;-2.610;2024-01-30T01:57:48;13;10;
55276;PMS5003;41136;51.478;-2.610;2024-01-30T02:00:13;11;9;
55276;PMS5003;41136;51.478;-2.610;2024-01-30T02:02:38;11;10;
55276;PMS5003;41136;51.478;-2.610;2024-01-30T02:05:04;8;8;
55276;PMS5003;41136;51.478;-2.610;2024-01-30T02:07:29;12;10;
55276;PMS5003;41136;51.478;-2.610;2024-01-30T02:09:54;9;9;
55276;PMS5003;41136;51.478;-2.610;2024-01-30T02:12:20;8;7;
55276;PMS5003;41136;51.478;-2.610;2024-01-30T02:14:45;8;6;
55276;PMS5003;41136;51.478;-2.610;2024-01-30T02:17:10;4;4;
55276;PMS5003;41136;51.478;-2.610;2024-01-30T02:19:36;4;4;
55276;PMS5003;41136;51.478;-2.610;2024-01-30T02:22:01;5;4;
55276;PMS5003;41136;51.478;-2.610;2024-01-30T02:24:26;2;2;
55276;PMS5003;41136;51.478;-2.610;2024-01-30T02:26:52;3;3;
55276;PMS5003;41136;51.478;-2.610;2024-01-30T02:29:17;3;2;
55276;PMS5003;41136;51.478;-2.610;2024-01-30T02:31:43;4;3;
55276;PMS5003;41136;51.478;-2.610;2024-01-30T02:34:08;2;2;
55276;PMS5003;41136;51.478;-2.610;2024-01-30T02:36:33;0;0;
55276;PMS5003;41136;51.478;-2.610;2024-01-30T02:38:59;0;0;
55276;PMS5003;41136;51.478;-2.610;2024-01-30T02:41:24;1;1;
55276;PMS5003;41136;51.478;-2.610;2024-01-30T02:43:49;0;0;
55276;PMS5003;41136;51.478;-2.610;2024-01-30T02:46:15;0;0;
55276;PMS5003;41136;51.478;-2.610;2024-01-30T02:48:40;0;0;
55276;PMS5003;41136;51.478;-2.610;2024-01-30T02:51:05;0;0;
55276;PMS5003;41136;51.478;-2.610;2024-01-30T02:53:31;0;0;
55276;PMS5003;41136;51.478;-2.610;2024-01-30T02:55:56;2;0;
55276;PMS5003;41136;51.478;-2.610;2024-01-30T02:58:22;0;0;
55276;PMS5003;41136;51.478;-2.610;2024-01-30T03:00:47;0;0;
55276;PMS5003;41136;51.478;-2.610;2024-01-30T03:03:12;0;0;
55276;PMS5003;41136;51.478;-2.610;2024-01-30T03:05:38;0;0;
55276;PMS5003;41136;51.478;-2.610;2024-01-30T03:08:04;0;0;
55276;PMS5003;41136;51.478;-2.610;2024-01-30T03:10:28;0;0;
55276;PMS5003;41136;51.478;-2.610;2024-01-30T03:12:54;0;0;
55276;PMS5003;41136;51.478;-2.610;2024-01-30T03:15:19;0;0;
55276;PMS5003;41136;51.478;-2.610;2024-01-30T03:17:45;0;0;
55276;PMS5003;41136;51.478;-2.610;2024-01-30T03:20:12;0;0;
55276;PMS5003;41136;51.478;-2.610;2024-01-30T03:22:35;0;0;
55276;PMS5003;41136;51.478;-2.610;2024-01-30T03:25:01;1;1;
55276;PMS5003;41136;51.478;-2.610;2024-01-30T03:27:26;1;1;
55276;PMS5003;41136;51.478;-2.610;2024-01-30T03:31:26;0;0;
55276;PMS5003;41136;51.478;-2.610;2024-01-30T03:33:51;0;0;
55276;PMS5003;41136;51.478;-2.610;2024-01-30T03:36:17;0;0;
55276;PMS5003;41136;51.478;-2.610;2024-01-30T03:42:15;1;1;
55276;PMS5003;41136;51.478;-2.610;2024-01-30T03:44:40;1;1;
55276;PMS5003;41136;51.478;-2.610;2024-01-30T03:47:06;1;0;
55276;PMS5003;41136;51.478;-2.610;2024-01-30T03:49:31;0;0;
55276;PMS5003;41136;51.478;-2.610;2024-01-30T03:51:56;2;0;
55276;PMS5003;41136;51.478;-2.610;2024-01-30T03:54:22;0;0;
55276;PMS5003;41136;51.478;-2.610;2024-01-30T03:56:47;0;0;
55276;PMS5003;41136;51.478;-2.610;2024-01-30T03:59:12;0;0;
55276;PMS5003;41136;51.478;-2.610;2024-01-30T04:01:38;0;0;
55276;PMS5003;41136;51.478;-2.610;2024-01-30T04:04:03;1;1;
55276;PMS5003;41136;51.478;-2.610;2024-01-30T04:06:28;0;0;
55276;PMS5003;41136;51.478;-2.610;2024-01-30T04:08:54;0;0;
55276;PMS5003;41136;51.478;-2.610;2024-01-30T04:11:19;0;0;
55276;PMS5003;41136;51.478;-2.610;2024-01-30T04:13:45;1;0;
55276;PMS5003;41136;51.478;-2.610;2024-01-30T04:16:18;0;0;
55276;PMS5003;41136;51.478;-2.610;2024-01-30T04:18:35;0;0;
55276;PMS5003;41136;51.478;-2.610;2024-01-30T04:21:01;1;1;
55276;PMS5003;41136;51.478;-2.610;2024-01-30T04:23:26;0;0;
55276;PMS5003;41136;51.478;-2.610;2024-01-30T04:25:51;0;0;
55276;PMS5003;41136;51.478;-2.610;2024-01-30T04:28:17;0;0;
55276;PMS5003;41136;51.478;-2.610;2024-01-30T04:30:42;0;0;
55276;PMS5003;41136;51.478;-2.610;2024-01-30T04:33:07;0;0;
55276;PMS5003;41136;51.478;-2.610;2024-01-30T04:35:33;0;0;
55276;PMS5003;41136;51.478;-2.610;2024-01-30T04:37:58;0;0;
55276;PMS5003;41136;51.478;-2.610;2024-01-30T04:40:24;1;1;
55276;PMS5003;41136;51.478;-2.610;2024-01-30T04:42:49;0;0;
55276;PMS5003;41136;51.478;-2.610;2024-01-30T04:45:14;1;0;
55276;PMS5003;41136;51.478;-2.610;2024-01-30T04:47:40;0;0;
55276;PMS5003;41136;51.478;-2.610;2024-01-30T04:50:06;0;0;
55276;PMS5003;41136;51.478;-2.610;2024-01-30T04:52:30;0;0;
55276;PMS5003;41136;51.478;-2.610;2024-01-30T04:54:56;0;0;
55276;PMS5003;41136;51.478;-2.610;2024-01-30T04:57:21;0;0;
55276;PMS5003;41136;51.478;-2.610;2024-01-30T04:59:47;0;0;
55276;PMS5003;41136;51.478;-2.610;2024-01-30T05:02:12;1;1;
55276;PMS5003;41136;51.478;-2.610;2024-01-30T05:04:37;0;0;
55276;PMS5003;41136;51.478;-2.610;2024-01-30T05:07:03;1;1;
55276;PMS5003;41136;51.478;-2.610;2024-01-30T05:09:28;2;2;
55276;PMS5003;41136;51.478;-2.610;2024-01-30T05:11:54;2;0;
55276;PMS5003;41136;51.478;-2.610;2024-01-30T05:14:19;0;0;
55276;PMS5003;41136;51.478;-2.610;2024-01-30T05:16:44;0;0;
55276;PMS5003;41136;51.478;-2.610;2024-01-30T05:19:10;0;0;
55276;PMS5003;41136;51.478;-2.610;2024-01-30T05:21:35;2;1;
55276;PMS5003;41136;51.478;-2.610;2024-01-30T05:24:00;0;0;
55276;PMS5003;41136;51.478;-2.610;2024-01-30T05:26:26;0;0;
55276;PMS5003;41136;51.478;-2.610;2024-01-30T05:28:51;2;0;
55276;PMS5003;41136;51.478;-2.610;2024-01-30T05:31:16;2;1;
55276;PMS5003;41136;51.478;-2.610;2024-01-30T05:33:42;1;1;
55276;PMS5003;41136;51.478;-2.610;2024-01-30T05:36:07;1;1;
55276;PMS5003;41136;51.478;-2.610;2024-01-30T05:38:33;2;1;
55276;PMS5003;41136;51.478;-2.610;2024-01-30T05:40:58;3;1;
55276;PMS5003;41136;51.478;-2.610;2024-01-30T05:43:23;2;2;
55276;PMS5003;41136;51.478;-2.610;2024-01-30T05:45:49;2;1;
55276;PMS5003;41136;51.478;-2.610;2024-01-30T05:48:14;1;1;
55276;PMS5003;41136;51.478;-2.610;2024-01-30T05:50:39;2;2;
55276;PMS5003;41136;51.478;-2.610;2024-01-30T05:53:05;1;1;
55276;PMS5003;41136;51.478;-2.610;2024-01-30T05:55:30;2;2;
55276;PMS5003;41136;51.478;-2.610;2024-01-30T05:57:56;2;2;
55276;PMS5003;41136;51.478;-2.610;2024-01-30T06:00:21;2;2;
55276;PMS5003;41136;51.478;-2.610;2024-01-30T06:02:46;1;1;
55276;PMS5003;41136;51.478;-2.610;2024-01-30T06:05:12;4;2;
55276;PMS5003;41136;51.478;-2.610;2024-01-30T06:07:37;2;2;
55276;PMS5003;41136;51.478;-2.610;2024-01-30T06:10:03;2;2;
55276;PMS5003;41136;51.478;-2.610;2024-01-30T06:12:28;6;4;
55276;PMS5003;41136;51.478;-2.610;2024-01-30T06:14:53;3;3;
55276;PMS5003;41136;51.478;-2.610;2024-01-30T06:17:19;7;5;
55276;PMS5003;41136;51.478;-2.610;2024-01-30T06:19:44;7;7;
55276;PMS5003;41136;51.478;-2.610;2024-01-30T06:22:10;8;7;
55276;PMS5003;41136;51.478;-2.610;2024-01-30T06:24:35;9;8;
55276;PMS5003;41136;51.478;-2.610;2024-01-30T06:27:00;7;7;
55276;PMS5003;41136;51.478;-2.610;2024-01-30T06:29:26;12;8;
55276;PMS5003;41136;51.478;-2.610;2024-01-30T06:31:51;10;10;
55276;PMS5003;41136;51.478;-2.610;2024-01-30T06:34:16;12;9;
55276;PMS5003;41136;51.478;-2.610;2024-01-30T06:36:42;12;10;
55276;PMS5003;41136;51.478;-2.610;2024-01-30T06:39:07;10;8;
55276;PMS5003;41136;51.478;-2.610;2024-01-30T06:41:32;13;9;
55276;PMS5003;41136;51.478;-2.610;2024-01-30T06:43:58;7;7;
55276;PMS5003;41136;51.478;-2.610;2024-01-30T06:46:23;14;10;
55276;PMS5003;41136;51.478;-2.610;2024-01-30T06:48:48;14;11;
55276;PMS5003;41136;51.478;-2.610;2024-01-30T06:51:14;13;9;
55276;PMS5003;41136;51.478;-2.610;2024-01-30T06:53:39;10;9;
55276;PMS5003;41136;51.478;-2.610;2024-01-30T06:56:05;6;6;
55276;PMS5003;41136;51.478;-2.610;2024-01-30T06:58:30;15;12;
55276;PMS5003;41136;51.478;-2.610;2024-01-30T07:00:55;8;8;
55276;PMS5003;41136;51.478;-2.610;2024-01-30T07:03:21;9;9;
55276;PMS5003;41136;51.478;-2.610;2024-01-30T07:05:46;12;9;
55276;PMS5003;41136;51.478;-2.610;2024-01-30T07:08:12;11;9;
55276;PMS5003;41136;51.478;-2.610;2024-01-30T07:10:37;11;8;
55276;PMS5003;41136;51.478;-2.610;2024-01-30T07:13:02;15;9;
55276;PMS5003;41136;51.478;-2.610;2024-01-30T07:15:38;10;9;
55276;PMS5003;41136;51.478;-2.610;2024-01-30T07:17:53;10;7;
55276;PMS5003;41136;51.478;-2.610;2024-01-30T07:20:18;12;10;
55276;PMS5003;41136;51.478;-2.610;2024-01-30T07:22:43;7;7;
55276;PMS5003;41136;51.478;-2.610;2024-01-30T07:25:09;8;8;
55276;PMS5003;41136;51.478;-2.610;2024-01-30T07:27:34;10;6;
55276;PMS5003;41136;51.478;-2.610;2024-01-30T07:30:00;8;7;
55276;PMS5003;41136;51.478;-2.610;2024-01-30T07:32:25;7;6;
55276;PMS5003;41136;51.478;-2.610;2024-01-30T07:34:50;8;8;
55276;PMS5003;41136;51.478;-2.610;2024-01-30T07:37:16;7;7;
55276;PMS5003;41136;51.478;-2.610;2024-01-30T07:39:41;7;6;
55276;PMS5003;41136;51.478;-2.610;2024-01-30T07:42:06;7;7;
55276;PMS5003;41136;51.478;-2.610;2024-01-30T07:44:32;7;7;
55276;PMS5003;41136;51.478;-2.610;2024-01-30T07:46:57;8;8;
55276;PMS5003;41136;51.478;-2.610;2024-01-30T07:49:23;6;6;
55276;PMS5003;41136;51.478;-2.610;2024-01-30T07:51:48;7;7;
55276;PMS5003;41136;51.478;-2.610;2024-01-30T07:54:14;7;7;
55276;PMS5003;41136;51.478;-2.610;2024-01-30T07:56:39;8;8;
55276;PMS5003;41136;51.478;-2.610;2024-01-30T07:59:04;7;7;
55276;PMS5003;41136;51.478;-2.610;2024-01-30T08:01:30;8;7;
55276;PMS5003;41136;51.478;-2.610;2024-01-30T08:03:55;8;8;
55276;PMS5003;41136;51.478;-2.610;2024-01-30T08:06:20;10;8;
55276;PMS5003;41136;51.478;-2.610;2024-01-30T08:08:46;8;6;
55276;PMS5003;41136;51.478;-2.610;2024-01-30T08:11:11;8;7;
55276;PMS5003;41136;51.478;-2.610;2024-01-30T08:13:36;8;7;
55276;PMS5003;41136;51.478;-2.610;2024-01-30T08:16:02;6;5;
55276;PMS5003;41136;51.478;-2.610;2024-01-30T08:18:27;7;7;
55276;PMS5003;41136;51.478;-2.610;2024-01-30T08:20:52;11;8;
55276;PMS5003;41136;51.478;-2.610;2024-01-30T08:23:18;7;7;
55276;PMS5003;41136;51.478;-2.610;2024-01-30T08:25:43;9;6;
55276;PMS5003;41136;51.478;-2.610;2024-01-30T08:28:08;8;8;
55276;PMS5003;41136;51.478;-2.610;2024-01-30T08:30:34;11;9;
55276;PMS5003;41136;51.478;-2.610;2024-01-30T08:32:59;8;8;
55276;PMS5003;41136;51.478;-2.610;2024-01-30T08:35:25;8;6;
55276;PMS5003;41136;51.478;-2.610;2024-01-30T08:37:50;11;10;
55276;PMS5003;41136;51.478;-2.610;2024-01-30T08:43:06;12;8;
55276;PMS5003;41136;51.478;-2.610;2024-01-30T08:45:32;8;5;
55276;PMS5003;41136;51.478;-2.610;2024-01-30T08:47:57;9;5;
55276;PMS5003;41136;51.478;-2.610;2024-01-30T08:50:22;6;5;
55276;PMS5003;41136;51.478;-2.610;2024-01-30T08:52:47;5;5;
55276;PMS5003;41136;51.478;-2.610;2024-01-30T08:55:13;7;6;
55276;PMS5003;41136;51.478;-2.610;2024-01-30T08:57:38;7;7;
55276;PMS5003;41136;51.478;-2.610;2024-01-30T09:00:04;5;5;
55276;PMS5003;41136;51.478;-2.610;2024-01-30T09:02:29;6;5;
55276;PMS5003;41136;51.478;-2.610;2024-01-30T09:04:54;6;6;
55276;PMS5003;41136;51.478;-2.610;2024-01-30T09:07:19;8;8;
55276;PMS5003;41136;51.478;-2.610;2024-01-30T09:09:48;8;8;
55276;PMS5003;41136;51.478;-2.610;2024-01-30T09:12:10;7;4;
55276;PMS5003;41136;51.478;-2.610;2024-01-30T09:14:35;5;5;
55276;PMS5003;41136;51.478;-2.610;2024-01-30T09:17:00;6;5;
55276;PMS5003;41136;51.478;-2.610;2024-01-30T09:19:25;7;7;
55276;PMS5003;41136;51.478;-2.610;2024-01-30T09:21:50;5;5;
55276;PMS5003;41136;51.478;-2.610;2024-01-30T09:24:16;7;6;
55276;PMS5003;41136;51.478;-2.610;2024-01-30T09:26:41;8;8;
55276;PMS5003;41136;51.478;-2.610;2024-01-30T09:29:06;8;7;
55276;PMS5003;41136;51.478;-2.610;2024-01-30T09:31:31;8;7;
55276;PMS5003;41136;51.478;-2.610;2024-01-30T09:33:57;8;8;
55276;PMS5003;41136;51.478;-2.610;2024-01-30T09:36:22;7;7;
55276;PMS5003;41136;51.478;-2.610;2024-01-30T09:38:47;8;7;
55276;PMS5003;41136;51.478;-2.610;2024-01-30T09:41:14;5;5;
55276;PMS5003;41136;51.478;-2.610;2024-01-30T09:43:38;8;6;
55276;PMS5003;41136;51.478;-2.610;2024-01-30T09:46:03;7;7;
55276;PMS5003;41136;51.478;-2.610;2024-01-30T09:48:28;8;6;
55276;PMS5003;41136;51.478;-2.610;2024-01-30T09:50:54;6;6;
55276;PMS5003;41136;51.478;-2.610;2024-01-30T09:53:19;9;6;
55276;PMS5003;41136;51.478;-2.610;2024-01-30T09:55:45;6;6;
55276;PMS5003;41136;51.478;-2.610;2024-01-30T09:58:11;7;6;
55276;PMS5003;41136;51.478;-2.610;2024-01-30T10:00:35;7;7;
55276;PMS5003;41136;51.478;-2.610;2024-01-30T10:03:01;6;6;
55276;PMS5003;41136;51.478;-2.610;2024-01-30T10:05:26;5;5;
55276;PMS5003;41136;51.478;-2.610;2024-01-30T10:07:52;7;5;
55276;PMS5003;41136;51.478;-2.610;2024-01-30T10:10:17;9;9;
55276;PMS5003;41136;51.478;-2.610;2024-01-30T10:12:42;8;6;
55276;PMS5003;41136;51.478;-2.610;2024-01-30T10:15:08;8;8;
55276;PMS5003;41136;51.478;-2.610;2024-01-30T10:17:33;6;6;
55276;PMS5003;41136;51.478;-2.610;2024-01-30T10:19:58;7;7;
55276;PMS5003;41136;51.478;-2.610;2024-01-30T10:22:24;7;6;
55276;PMS5003;41136;51.478;-2.610;2024-01-30T10:24:49;6;6;
55276;PMS5003;41136;51.478;-2.610;2024-01-30T10:27:15;7;5;
55276;PMS5003;41136;51.478;-2.610;2024-01-30T10:29:40;7;7;
55276;PMS5003;41136;51.478;-2.610;2024-01-30T10:32:05;5;5;
55276;PMS5003;41136;51.478;-2.610;2024-01-30T10:34:31;5;5;
55276;PMS5003;41136;51.478;-2.610;2024-01-30T10:36:59;5;5;
55276;PMS5003;41136;51.478;-2.610;2024-01-30T10:39:22;9;7;
55276;PMS5003;41136;51.478;-2.610;2024-01-30T10:41:47;5;5;
55276;PMS5003;41136;51.478;-2.610;2024-01-30T10:44:12;7;5;
55276;PMS5003;41136;51.478;-2.610;2024-01-30T10:46:38;8;7;
55276;PMS5003;41136;51.478;-2.610;2024-01-30T10:49:03;6;5;
55276;PMS5003;41136;51.478;-2.610;2024-01-30T10:51:28;6;5;
55276;PMS5003;41136;51.478;-2.610;2024-01-30T10:53:53;7;7;
55276;PMS5003;41136;51.478;-2.610;2024-01-30T10:56:19;6;6;
55276;PMS5003;41136;51.478;-2.610;2024-01-30T10:58:44;10;8;
55276;PMS5003;41136;51.478;-2.610;2024-01-30T11:01:09;6;6;
55276;PMS5003;41136;51.478;-2.610;2024-01-30T11:03:34;6;6;
55276;PMS5003;41136;51.478;-2.610;2024-01-30T11:06:00;7;7;
55276;PMS5003;41136;51.478;-2.610;2024-01-30T11:08:25;5;5;
55276;PMS5003;41136;51.478;-2.610;2024-01-30T11:10:54;12;12;
55276;PMS5003;41136;51.478;-2.610;2024-01-30T11:13:18;8;6;
55276;PMS5003;41136;51.478;-2.610;2024-01-30T11:15:41;10;8;
55276;PMS5003;41136;51.478;-2.610;2024-01-30T11:18:07;4;4;
55276;PMS5003;41136;51.478;-2.610;2024-01-30T11:20:32;4;4;
55276;PMS5003;41136;51.478;-2.610;2024-01-30T11:22:58;5;4;
55276;PMS5003;41136;51.478;-2.610;2024-01-30T11:25:23;7;5;
55276;PMS5003;41136;51.478;-2.610;2024-01-30T11:27:49;4;4;
55276;PMS5003;41136;51.478;-2.610;2024-01-30T11:32:39;3;2;
55276;PMS5003;41136;51.478;-2.610;2024-01-30T11:35:05;3;2;
55276;PMS5003;41136;51.478;-2.610;2024-01-30T11:37:30;3;3;
55276;PMS5003;41136;51.478;-2.610;2024-01-30T11:39:55;3;2;
55276;PMS5003;41136;51.478;-2.610;2024-01-30T11:42:22;4;4;
55276;PMS5003;41136;51.478;-2.610;2024-01-30T11:44:46;4;4;
55276;PMS5003;41136;51.478;-2.610;2024-01-30T11:47:11;3;3;
55276;PMS5003;41136;51.478;-2.610;2024-01-30T11:49:37;6;5;
55276;PMS5003;41136;51.478;-2.610;2024-01-30T11:52:02;7;4;
55276;PMS5003;41136;51.478;-2.610;2024-01-30T11:54:27;5;5;
55276;PMS5003;41136;51.478;-2.610;2024-01-30T11:56:53;8;5;
55276;PMS5003;41136;51.478;-2.610;2024-01-30T11:59:18;6;5;
55276;PMS5003;41136;51.478;-2.610;2024-01-30T12:01:43;3;3;
55276;PMS5003;41136;51.478;-2.610;2024-01-30T12:04:09;3;3;
55276;PMS5003;41136;51.478;-2.610;2024-01-30T12:06:34;3;3;
55276;PMS5003;41136;51.478;-2.610;2024-01-30T12:09:01;6;3;
55276;PMS5003;41136;51.478;-2.610;2024-01-30T12:11:25;2;2;
55276;PMS5003;41136;51.478;-2.610;2024-01-30T12:13:51;3;3;
55276;PMS5003;41136;51.478;-2.610;2024-01-30T12:16:16;3;2;
55276;PMS5003;41136;51.478;-2.610;2024-01-30T12:18:41;5;5;
55276;PMS5003;41136;51.478;-2.610;2024-01-30T12:21:07;1;1;
55276;PMS5003;41136;51.478;-2.610;2024-01-30T12:23:32;3;3;
55276;PMS5003;41136;51.478;-2.610;2024-01-30T12:25:57;4;4;
55276;PMS5003;41136;51.478;-2.610;2024-01-30T12:28:23;3;3;
55276;PMS5003;41136;51.478;-2.610;2024-01-30T12:30:48;3;2;
55276;PMS5003;41136;51.478;-2.610;2024-01-30T12:33:19;5;5;
55276;PMS5003;41136;51.478;-2.610;2024-01-30T12:35:39;4;2;
55276;PMS5003;41136;51.478;-2.610;2024-01-30T12:38:04;4;2;
55276;PMS5003;41136;51.478;-2.610;2024-01-30T12:40:30;9;5;
55276;PMS5003;41136;51.478;-2.610;2024-01-30T12:42:55;4;4;
55276;PMS5003;41136;51.478;-2.610;2024-01-30T12:45:20;2;2;
55276;PMS5003;41136;51.478;-2.610;2024-01-30T12:47:46;1;1;
55276;PMS5003;41136;51.478;-2.610;2024-01-30T12:50:11;1;1;
55276;PMS5003;41136;51.478;-2.610;2024-01-30T12:52:37;0;0;
55276;PMS5003;41136;51.478;-2.610;2024-01-30T12:55:02;1;1;
55276;PMS5003;41136;51.478;-2.610;2024-01-30T12:57:27;1;1;
55276;PMS5003;41136;51.478;-2.610;2024-01-30T12:59:53;2;0;
55276;PMS5003;41136;51.478;-2.610;2024-01-30T13:02:18;0;0;
55276;PMS5003;41136;51.478;-2.610;2024-01-30T13:04:43;1;1;
55276;PMS5003;41136;51.478;-2.610;2024-01-30T13:07:09;0;0;
55276;PMS5003;41136;51.478;-2.610;2024-01-30T13:09:34;0;0;
55276;PMS5003;41136;51.478;-2.610;2024-01-30T13:12:00;1;1;
55276;PMS5003;41136;51.478;-2.610;2024-01-30T13:14:25;0;0;
55276;PMS5003;41136;51.478;-2.610;2024-01-30T13:16:50;0;0;
55276;PMS5003;41136;51.478;-2.610;2024-01-30T13:19:16;0;0;
55276;PMS5003;41136;51.478;-2.610;2024-01-30T13:21:41;0;0;
55276;PMS5003;41136;51.478;-2.610;2024-01-30T13:24:06;0;0;
55276;PMS5003;41136;51.478;-2.610;2024-01-30T13:26:32;0;0;
55276;PMS5003;41136;51.478;-2.610;2024-01-30T13:28:57;1;1;
55276;PMS5003;41136;51.478;-2.610;2024-01-30T13:31:22;0;0;
55276;PMS5003;41136;51.478;-2.610;2024-01-30T13:33:48;0;0;
55276;PMS5003;41136;51.478;-2.610;2024-01-30T13:36:13;0;0;
55276;PMS5003;41136;51.478;-2.610;2024-01-30T13:38:39;0;0;
55276;PMS5003;41136;51.478;-2.610;2024-01-30T13:41:04;1;1;
55276;PMS5003;41136;51.478;-2.610;2024-01-30T13:43:29;0;0;
55276;PMS5003;41136;51.478;-2.610;2024-01-30T13:45:55;1;1;
55276;PMS5003;41136;51.478;-2.610;2024-01-30T13:48:20;1;1;
55276;PMS5003;41136;51.478;-2.610;2024-01-30T13:50:45;2;2;
55276;PMS5003;41136;51.478;-2.610;2024-01-30T13:53:10;1;1;
55276;PMS5003;41136;51.478;-2.610;2024-01-30T13:55:36;5;5;
55276;PMS5003;41136;51.478;-2.610;2024-01-30T13:58:01;10;8;
55276;PMS5003;41136;51.478;-2.610;2024-01-30T14:00:27;5;4;
55276;PMS5003;41136;51.478;-2.610;2024-01-30T14:02:52;4;3;
55276;PMS5003;41136;51.478;-2.610;2024-01-30T14:05:17;3;2;
55276;PMS5003;41136;51.478;-2.610;2024-01-30T14:07:43;3;2;
55276;PMS5003;41136;51.478;-2.610;2024-01-30T14:10:09;3;1;
55276;PMS5003;41136;51.478;-2.610;2024-01-30T14:12:33;4;3;
55276;PMS5003;41136;51.478;-2.610;2024-01-30T14:14:59;4;2;
55276;PMS5003;41136;51.478;-2.610;2024-01-30T14:17:24;5;3;
55276;PMS5003;41136;51.478;-2.610;2024-01-30T14:19:49;5;5;
55276;PMS5003;41136;51.478;-2.610;2024-01-30T14:22:15;3;3;
55276;PMS5003;41136;51.478;-2.610;2024-01-30T14:24:41;4;4;
55276;PMS5003;41136;51.478;-2.610;2024-01-30T14:27:05;5;3;
55276;PMS5003;41136;51.478;-2.610;2024-01-30T14:29:31;3;3;
55276;PMS5003;41136;51.478;-2.610;2024-01-30T14:31:56;8;3;
55276;PMS5003;41136;51.478;-2.610;2024-01-30T14:34:22;3;3;
55276;PMS5003;41136;51.478;-2.610;2024-01-30T14:36:47;4;4;
55276;PMS5003;41136;51.478;-2.610;2024-01-30T14:39:12;5;2;
55276;PMS5003;41136;51.478;-2.610;2024-01-30T14:41:38;3;3;
55276;PMS5003;41136;51.478;-2.610;2024-01-30T14:44:03;4;4;
55276;PMS5003;41136;51.478;-2.610;2024-01-30T14:46:28;2;2;
55276;PMS5003;41136;51.478;-2.610;2024-01-30T14:48:54;2;2;
55276;PMS5003;41136;51.478;-2.610;2024-01-30T14:51:19;3;3;
55276;PMS5003;41136;51.478;-2.610;2024-01-30T14:53:44;2;1;
55276;PMS5003;41136;51.478;-2.610;2024-01-30T14:56:10;3;3;
55276;PMS5003;41136;51.478;-2.610;2024-01-30T14:58:35;1;1;
55276;PMS5003;41136;51.478;-2.610;2024-01-30T15:01:01;4;4;
55276;PMS5003;41136;51.478;-2.610;2024-01-30T15:03:27;0;0;
55276;PMS5003;41136;51.478;-2.610;2024-01-30T15:05:51;1;1;
55276;PMS5003;41136;51.478;-2.610;2024-01-30T15:08:16;1;1;
55276;PMS5003;41136;51.478;-2.610;2024-01-30T15:10:42;3;3;
55276;PMS5003;41136;51.478;-2.610;2024-01-30T15:13:07;1;1;
55276;PMS5003;41136;51.478;-2.610;2024-01-30T15:15:33;1;1;
55276;PMS5003;41136;51.478;-2.610;2024-01-30T15:17:58;0;0;
55276;PMS5003;41136;51.478;-2.610;2024-01-30T15:20:23;1;1;
55276;PMS5003;41136;51.478;-2.610;2024-01-30T15:22:49;1;0;
55276;PMS5003;41136;51.478;-2.610;2024-01-30T15:25:14;1;1;
55276;PMS5003;41136;51.478;-2.610;2024-01-30T15:27:39;0;0;
55276;PMS5003;41136;51.478;-2.610;2024-01-30T15:30:05;2;0;
55276;PMS5003;41136;51.478;-2.610;2024-01-30T15:32:30;1;1;
55276;PMS5003;41136;51.478;-2.610;2024-01-30T15:34:55;0;0;
55276;PMS5003;41136;51.478;-2.610;2024-01-30T15:37:21;1;1;
55276;PMS5003;41136;51.478;-2.610;2024-01-30T15:39:46;1;1;
55276;PMS5003;41136;51.478;-2.610;2024-01-30T15:42:12;7;5;
55276;PMS5003;41136;51.478;-2.610;2024-01-30T15:44:37;17;15;
55276;PMS5003;41136;51.478;-2.610;2024-01-30T15:47:02;6;5;
55276;PMS5003;41136;51.478;-2.610;2024-01-30T15:49:27;5;5;
55276;PMS5003;41136;51.478;-2.610;2024-01-30T15:51:52;2;2;
55276;PMS5003;41136;51.478;-2.610;2024-01-30T15:54:18;1;1;
55276;PMS5003;41136;51.478;-2.610;2024-01-30T15:56:43;8;4;
55276;PMS5003;41136;51.478;-2.610;2024-01-30T15:59:08;9;9;
55276;PMS5003;41136;51.478;-2.610;2024-01-30T16:01:34;5;5;
55276;PMS5003;41136;51.478;-2.610;2024-01-30T16:03:59;7;6;
55276;PMS5003;41136;51.478;-2.610;2024-01-30T16:06:24;7;6;
55276;PMS5003;41136;51.478;-2.610;2024-01-30T16:08:50;7;7;
55276;PMS5003;41136;51.478;-2.610;2024-01-30T16:11:16;3;3;
55276;PMS5003;41136;51.478;-2.610;2024-01-30T16:13:40;2;2;
55276;PMS5003;41136;51.478;-2.610;2024-01-30T16:16:06;3;3;
55276;PMS5003;41136;51.478;-2.610;2024-01-30T16:18:31;3;3;
55276;PMS5003;41136;51.478;-2.610;2024-01-30T16:20:57;4;4;
55276;PMS5003;41136;51.478;-2.610;2024-01-30T16:23:22;4;4;
55276;PMS5003;41136;51.478;-2.610;2024-01-30T16:25:47;3;3;
55276;PMS5003;41136;51.478;-2.610;2024-01-30T16:28:13;1;1;
55276;PMS5003;41136;51.478;-2.610;2024-01-30T16:30:38;2;2;
55276;PMS5003;41136;51.478;-2.610;2024-01-30T16:33:03;0;0;